Time;durP1;ratioP1;P1;durP2;ratioP2;P2;SDS_P1;SDS_P2;PMS_P1;PMS_P2;Temp;Humidity;BMP_temperature;BMP_pressure;BME280_temperature;BME280_humidity;BME280_pressure;Samples;Min_cycle;Max_cycle;Signal;HPM_P1;HPM_P2
2021/10/30 00:02:54;;;;;;;14.90;8.65;;;;;;;9.81;85.64;100746.56;10181255;28;20074;-73
2021/10/30 00:07:50;;;;;;;15.45;8.57;;;;;;;9.82;85.56;100737.25;10175220;28;20140;-73
2021/10/30 00:12:47;;;;;;;13.30;8.00;;;;;;;9.85;85.95;100731.16;10177624;28;20069;-73
2021/10/30 00:17:43;;;;;;;17.17;8.80;;;;;;;9.87;85.94;100723.47;10175483;28;20046;-73
2021/10/30 00:22:40;;;;;;;18.27;8.43;;;;;;;9.93;86.49;100726.88;10202028;28;20107;-73
2021/10/30 00:27:37;;;;;;;12.68;7.78;;;;;;;9.90;86.42;100746.63;10215435;28;20038;-73
2021/10/30 00:32:33;;;;;;;11.18;7.88;;;;;;;9.85;86.02;100746.75;10209739;28;20045;-73
2021/10/30 00:37:30;;;;;;;14.85;8.95;;;;;;;9.80;86.38;100758.59;10209781;28;20108;-73
2021/10/30 00:42:26;;;;;;;11.82;8.15;;;;;;;9.76;86.62;100754.88;10198866;28;20401;-73
2021/10/30 00:47:23;;;;;;;14.40;8.23;;;;;;;9.75;86.43;100769.66;10214731;28;20080;-74
2021/10/30 00:52:21;;;;;;;16.23;8.70;;;;;;;9.75;86.54;100769.66;10226079;28;20042;-73
2021/10/30 00:57:18;;;;;;;16.58;9.07;;;;;;;9.73;86.66;100765.63;10209005;28;20152;-73
2021/10/30 01:02:14;;;;;;;14.82;8.57;;;;;;;9.76;86.22;100765.81;10208259;28;20045;-73
2021/10/30 01:07:11;;;;;;;14.27;8.13;;;;;;;9.72;86.61;100764.81;10210750;28;20041;-73
2021/10/30 01:12:08;;;;;;;12.18;8.23;;;;;;;9.74;86.55;100762.56;10218795;28;20136;-74
2021/10/30 01:17:07;;;;;;;14.85;8.88;;;;;;;9.68;86.46;100764.63;10204392;28;20104;-73
2021/10/30 01:22:04;;;;;;;12.38;8.00;;;;;;;9.64;86.86;100768.28;10201806;28;20422;-74
2021/10/30 01:27:01;;;;;;;13.63;8.50;;;;;;;9.58;85.71;100775.00;10198776;28;20081;-74
2021/10/30 01:31:57;;;;;;;14.80;7.20;;;;;;;9.53;86.61;100770.47;10207936;28;20083;-73
2021/10/30 01:36:55;;;;;;;15.73;8.07;;;;;;;9.50;86.51;100773.81;10210699;28;20543;-73
2021/10/30 01:41:52;;;;;;;15.02;8.05;;;;;;;9.44;86.99;100770.38;10207955;28;20083;-72
2021/10/30 01:46:48;;;;;;;12.70;7.80;;;;;;;9.40;86.96;100758.50;10210403;28;20077;-69
2021/10/30 01:51:45;;;;;;;14.77;7.70;;;;;;;9.36;86.70;100760.22;10211354;28;20064;-69
2021/10/30 01:56:41;;;;;;;12.25;7.95;;;;;;;9.33;87.14;100758.09;10223709;28;20074;-68
2021/10/30 02:01:38;;;;;;;13.32;8.02;;;;;;;9.31;87.19;100765.78;10215567;28;20615;-69
2021/10/30 02:06:35;;;;;;;15.32;7.88;;;;;;;9.25;87.33;100761.56;10216975;28;20049;-68
2021/10/30 02:11:31;;;;;;;13.05;8.23;;;;;;;9.25;86.83;100761.56;10211380;28;20099;-69
2021/10/30 02:16:28;;;;;;;10.70;6.93;;;;;;;9.22;87.03;100762.19;10217161;28;20049;-69
2021/10/30 02:21:24;;;;;;;10.32;6.47;;;;;;;9.20;87.17;100748.03;10221177;28;20128;-68
2021/10/30 02:26:21;;;;;;;13.18;7.50;;;;;;;9.17;87.92;100744.00;10223685;28;20519;-68
2021/10/30 02:31:18;;;;;;;16.02;7.45;;;;;;;9.16;87.04;100741.56;10205067;28;20033;-68
2021/10/30 02:36:14;;;;;;;11.55;7.68;;;;;;;9.00;87.84;100758.28;10203437;28;20160;-69
2021/10/30 02:41:11;;;;;;;10.20;7.00;;;;;;;9.10;88.04;100742.78;10220869;28;20045;-69
2021/10/30 02:46:08;;;;;;;12.30;7.25;;;;;;;9.07;87.91;100744.22;10216851;28;20077;-69
2021/10/30 02:51:04;;;;;;;10.63;7.10;;;;;;;9.01;87.55;100740.81;10215764;28;20041;-69
2021/10/30 02:56:01;;;;;;;10.50;6.50;;;;;;;8.96;87.30;100727.28;10215465;28;20534;-69
2021/10/30 03:00:57;;;;;;;12.48;6.72;;;;;;;8.94;87.21;100724.06;10176813;28;20469;-69
2021/10/30 03:05:55;;;;;;;10.93;7.32;;;;;;;8.92;87.34;100717.31;10196363;28;20069;-69
2021/10/30 03:10:52;;;;;;;10.48;6.63;;;;;;;8.90;88.01;100706.69;10210752;28;20128;-69
2021/10/30 03:15:48;;;;;;;13.32;8.15;;;;;;;8.91;87.86;100719.22;10211381;28;20041;-69
2021/10/30 03:20:45;;;;;;;11.02;7.40;;;;;;;8.86;87.79;100732.94;10207857;28;20060;-69
2021/10/30 03:25:41;;;;;;;11.18;7.90;;;;;;;8.84;88.22;100721.53;10218237;28;20037;-69
2021/10/30 03:30:42;;;;;;;13.70;6.95;;;;;;;8.81;88.63;100708.53;10205385;28;20082;-68
2021/10/30 03:35:38;;;;;;;11.15;7.70;;;;;;;8.83;88.22;100718.00;10212677;28;20049;-68
2021/10/30 03:40:35;;;;;;;11.65;6.85;;;;;;;8.83;88.72;100728.13;10203874;28;20065;-69
2021/10/30 03:45:31;;;;;;;9.70;6.85;;;;;;;8.81;88.13;100724.88;10213346;28;20096;-69
2021/10/30 03:50:28;;;;;;;10.40;6.88;;;;;;;8.79;88.30;100705.31;10210518;28;20053;-70
2021/10/30 03:55:25;;;;;;;12.55;7.07;;;;;;;8.76;88.07;100700.47;10221002;28;20045;-69
2021/10/30 04:00:22;;;;;;;11.05;6.95;;;;;;;8.75;88.17;100709.75;10213071;28;20084;-69
2021/10/30 04:05:18;;;;;;;12.45;7.38;;;;;;;8.73;87.93;100725.63;10218299;28;20146;-69
2021/10/30 04:10:15;;;;;;;13.43;7.30;;;;;;;8.73;88.56;100722.91;10202448;28;20561;-69
2021/10/30 04:15:12;;;;;;;11.43;7.00;;;;;;;8.78;88.88;100714.59;10219113;28;20107;-69
2021/10/30 04:20:08;;;;;;;13.70;6.95;;;;;;;8.82;88.48;100710.97;10207824;28;20499;-69
2021/10/30 04:25:05;;;;;;;9.50;6.50;;;;;;;8.81;88.45;100703.06;10208876;28;20463;-70
2021/10/30 04:30:03;;;;;;;11.88;6.40;;;;;;;8.82;88.25;100700.06;10209816;28;20883;-71
2021/10/30 04:35:06;;;;;;;11.95;6.70;;;;;;;8.89;87.97;100710.53;10200175;28;20695;-69
2021/10/30 04:40:03;;;;;;;8.93;6.43;;;;;;;8.95;87.31;100713.97;10212914;28;20077;-69
2021/10/30 04:45:00;;;;;;;12.27;6.18;;;;;;;8.97;86.92;100696.16;10209903;28;20038;-69
2021/10/30 04:49:56;;;;;;;11.65;7.03;;;;;;;9.01;86.89;100697.19;10178013;28;20069;-68
2021/10/30 04:54:53;;;;;;;10.27;6.45;;;;;;;9.01;86.36;100697.19;10187032;28;20107;-68
2021/10/30 04:59:49;;;;;;;10.18;6.47;;;;;;;9.05;86.34;100713.72;10213181;28;20065;-68
2021/10/30 05:04:46;;;;;;;12.35;6.72;;;;;;;9.06;85.91;100716.16;10219802;28;20061;-68
2021/10/30 05:09:43;;;;;;;10.73;6.30;;;;;;;9.08;85.21;100723.22;10206296;28;20077;-68
2021/10/30 05:14:39;;;;;;;10.30;6.35;;;;;;;9.10;85.38;100710.06;10221263;28;20073;-69
2021/10/30 05:19:35;;;;;;;8.65;5.93;;;;;;;9.11;85.43;100678.97;10206074;28;20572;-69
2021/10/30 05:24:32;;;;;;;11.35;6.78;;;;;;;9.08;85.60;100701.41;10215131;28;20123;-68
2021/10/30 05:29:28;;;;;;;10.05;6.45;;;;;;;9.12;85.09;100702.38;10203825;28;20096;-68
2021/10/30 05:34:25;;;;;;;11.57;6.18;;;;;;;9.14;85.00;100711.06;10207581;28;20092;-69
2021/10/30 05:39:23;;;;;;;9.10;6.60;;;;;;;9.18;85.02;100703.88;10221824;28;20042;-69
2021/10/30 05:44:19;;;;;;;13.30;6.75;;;;;;;9.19;84.63;100697.31;10203348;28;20042;-69
2021/10/30 05:49:17;;;;;;;10.80;6.32;;;;;;;9.23;84.43;100690.13;10214039;28;20046;-68
2021/10/30 05:54:14;;;;;;;11.05;7.10;;;;;;;9.19;84.45;100697.31;10224500;28;20080;-69
2021/10/30 05:59:10;;;;;;;10.82;6.97;;;;;;;9.18;84.16;100706.63;10211546;28;20107;-69
2021/10/30 06:04:07;;;;;;;10.90;7.85;;;;;;;9.16;83.86;100693.28;10212303;28;20528;-69
2021/10/30 06:09:03;;;;;;;10.40;7.18;;;;;;;9.17;84.11;100699.56;10216429;28;20065;-69
2021/10/30 06:14:02;;;;;;;11.48;7.63;;;;;;;9.14;83.50;100711.06;10205054;28;20097;-69
2021/10/30 06:18:59;;;;;;;12.32;7.65;;;;;;;9.10;83.83;100699.16;10211918;28;20053;-69
2021/10/30 06:23:58;;;;;;;14.82;7.93;;;;;;;9.11;83.11;100700.78;10198170;28;20125;-69
2021/10/30 06:28:56;;;;;;;11.10;7.53;;;;;;;9.17;83.32;100699.56;10204133;28;20474;-73
2021/10/30 06:33:53;;;;;;;13.52;7.25;;;;;;;9.21;83.28;100693.19;10210124;28;20045;-72
2021/10/30 06:38:50;;;;;;;11.70;7.60;;;;;;;9.29;83.02;100675.25;10206805;28;20066;-71
2021/10/30 06:44:06;;;;;;;13.77;8.30;;;;;;;9.32;82.69;100690.19;10204663;28;20049;-73
2021/10/30 06:49:03;;;;;;;15.98;9.25;;;;;;;9.37;82.66;100693.59;10213915;28;20503;-73
2021/10/30 06:53:59;;;;;;;11.00;8.05;;;;;;;9.40;83.39;100692.16;10213749;28;20100;-72
2021/10/30 06:58:56;;;;;;;15.20;8.93;;;;;;;9.46;83.52;100682.75;10217258;28;20072;-72
2021/10/30 07:03:52;;;;;;;11.32;7.43;;;;;;;9.48;82.97;100681.31;10211045;28;20796;-72
2021/10/30 07:08:49;;;;;;;14.93;8.80;;;;;;;9.52;82.52;100699.81;10210497;28;20562;-71
2021/10/30 07:13:45;;;;;;;14.05;8.23;;;;;;;9.54;82.17;100678.44;10213344;28;20480;-71
2021/10/30 07:18:43;;;;;;;13.07;8.65;;;;;;;9.57;82.22;100664.19;10213825;28;20045;-72
2021/10/30 07:23:40;;;;;;;13.00;8.63;;;;;;;9.56;82.12;100668.03;10207956;28;20076;-72
2021/10/30 07:28:36;;;;;;;14.43;8.63;;;;;;;9.57;82.31;100650.56;10191548;28;20046;-72
2021/10/30 07:33:33;;;;;;;12.18;8.40;;;;;;;9.58;81.69;100665.78;10202188;28;20049;-72
2021/10/30 07:38:30;;;;;;;11.65;8.00;;;;;;;9.61;81.52;100657.00;10217592;28;20068;-72
2021/10/30 07:43:26;;;;;;;14.88;8.93;;;;;;;9.64;81.35;100664.56;10217502;28;20080;-73
2021/10/30 07:48:23;;;;;;;13.95;7.68;;;;;;;9.64;80.65;100657.16;10206284;28;20438;-72
2021/10/30 07:53:19;;;;;;;15.95;8.38;;;;;;;9.75;80.17;100654.16;10216467;28;20065;-71
2021/10/30 07:58:15;;;;;;;14.25;8.70;;;;;;;9.81;79.80;100652.91;10202979;28;20057;-74
2021/10/30 08:03:12;;;;;;;12.90;8.63;;;;;;;9.86;79.76;100650.88;10219237;28;20526;-74
2021/10/30 08:08:08;;;;;;;13.15;7.82;;;;;;;9.92;79.14;100654.25;10206498;28;20077;-73
2021/10/30 08:13:09;;;;;;;13.52;7.47;;;;;;;10.02;78.62;100632.09;10202445;28;20049;-72
2021/10/30 08:18:05;;;;;;;13.82;8.23;;;;;;;10.14;78.92;100626.03;10211262;28;20073;-72
2021/10/30 08:23:02;;;;;;;15.30;7.30;;;;;;;10.24;77.58;100633.97;10200546;28;20065;-73
2021/10/30 08:28:00;;;;;;;13.70;7.25;;;;;;;10.42;76.93;100634.00;10198700;28;20117;-74
2021/10/30 08:32:57;;;;;;;9.75;6.53;;;;;;;10.64;75.50;100636.63;10204559;28;20578;-73
2021/10/30 08:37:53;;;;;;;9.88;5.88;;;;;;;10.87;73.96;100641.97;10199950;28;20053;-74
2021/10/30 08:42:51;;;;;;;9.85;6.70;;;;;;;10.99;73.62;100646.78;10209647;28;20129;-73
2021/10/30 08:47:48;;;;;;;10.82;6.35;;;;;;;11.09;74.39;100639.06;10205493;28;20467;-74
2021/10/30 08:52:44;;;;;;;10.82;6.97;;;;;;;11.24;72.73;100647.91;10206850;28;20131;-73
2021/10/30 08:57:41;;;;;;;8.10;5.82;;;;;;;11.30;72.04;100647.41;10220246;28;20069;-73
2021/10/30 09:02:38;;;;;;;10.52;5.78;;;;;;;11.40;72.03;100640.00;10221784;28;20038;-74
2021/10/30 09:07:35;;;;;;;10.00;5.78;;;;;;;11.43;71.22;100639.34;10226154;28;20046;-74
2021/10/30 09:12:31;;;;;;;11.60;6.25;;;;;;;11.49;71.55;100624.34;10223966;28;20068;-74
2021/10/30 09:17:28;;;;;;;12.93;5.72;;;;;;;11.56;70.72;100617.25;10221683;28;20050;-73
2021/10/30 09:22:25;;;;;;;8.40;5.50;;;;;;;11.65;71.60;100616.41;10226055;28;20136;-74
2021/10/30 09:27:41;;;;;;;11.50;6.43;;;;;;;11.71;71.39;100620.56;10215359;28;20050;-73
2021/10/30 09:32:38;;;;;;;10.50;5.93;;;;;;;11.74;70.37;100606.22;10214096;28;20042;-74
2021/10/30 09:37:34;;;;;;;10.88;6.38;;;;;;;11.76;70.10;100618.44;10213209;28;20074;-73
2021/10/30 09:42:31;;;;;;;9.88;5.32;;;;;;;11.81;69.61;100617.47;10216412;28;20485;-74
2021/10/30 09:47:27;;;;;;;13.77;5.30;;;;;;;11.87;69.97;100605.22;10208807;28;20499;-75
2021/10/30 09:52:28;;;;;;;7.97;5.22;;;;;;;11.93;69.73;100603.13;10204018;28;20125;-73
2021/10/30 09:57:30;;;;;;;9.88;5.15;;;;;;;12.00;69.31;100598.72;10207880;28;20049;-74
2021/10/30 10:02:28;;;;;;;10.82;6.20;;;;;;;12.10;69.08;100591.25;10202924;28;20407;-75
2021/10/30 10:07:26;;;;;;;8.38;5.60;;;;;;;12.19;69.32;100589.28;10185288;28;20042;-73
2021/10/30 10:12:22;;;;;;;10.73;6.35;;;;;;;12.28;68.71;100581.81;10183923;28;20085;-73
2021/10/30 10:17:20;;;;;;;8.95;5.68;;;;;;;12.39;68.68;100583.03;10191045;28;20045;-72
2021/10/30 10:22:17;;;;;;;11.00;6.43;;;;;;;12.54;68.98;100578.06;10193610;28;20452;-74
2021/10/30 10:27:13;;;;;;;10.70;5.43;;;;;;;12.73;67.90;100569.38;10190725;28;20054;-74
2021/10/30 10:32:15;;;;;;;10.18;6.20;;;;;;;12.89;68.22;100556.63;10185487;28;20050;-74
2021/10/30 10:37:12;;;;;;;10.75;6.05;;;;;;;12.99;66.89;100541.69;10191592;28;20141;-74
2021/10/30 10:42:13;;;;;;;11.82;5.78;;;;;;;13.07;66.41;100532.56;10208625;28;20052;-75
2021/10/30 10:47:35;;;;;;;10.18;5.50;;;;;;;13.18;65.12;100525.50;10205160;28;20042;-74
2021/10/30 10:52:31;;;;;;;8.73;5.72;;;;;;;13.23;66.13;100514.31;10212957;28;20073;-75
2021/10/30 10:57:48;;;;;;;15.30;5.53;;;;;;;13.31;64.88;100500.84;10206536;28;20092;-75
2021/10/30 11:02:50;;;;;;;12.18;5.25;;;;;;;13.38;65.18;100495.59;10203508;28;20073;-74
2021/10/30 11:07:47;;;;;;;7.53;4.63;;;;;;;13.47;64.48;100483.34;10209553;28;20042;-73
2021/10/30 11:13:06;;;;;;;8.80;4.90;;;;;;;13.51;64.80;100472.47;10208391;28;20065;-73
2021/10/30 11:18:08;;;;;;;9.02;5.25;;;;;;;13.51;66.53;100456.00;10205477;28;20084;-74
2021/10/30 11:23:12;;;;;;;7.40;4.03;;;;;;;13.52;67.57;100446.59;10211910;28;20080;-74
2021/10/30 11:28:08;;;;;;;8.45;4.30;;;;;;;13.55;66.92;100440.41;10211021;28;20053;-74
2021/10/30 11:33:27;;;;;;;8.43;4.07;;;;;;;13.61;67.34;100422.56;10189338;28;20455;-74
2021/10/30 11:38:24;;;;;;;10.45;4.22;;;;;;;13.71;65.85;100420.50;10189073;28;20100;-73
2021/10/30 11:43:20;;;;;;;8.63;3.72;;;;;;;13.72;66.18;100411.13;10198213;28;20111;-75
2021/10/30 11:48:17;;;;;;;7.60;4.22;;;;;;;13.71;68.84;100393.81;10205044;28;20582;-75
2021/10/30 11:53:17;;;;;;;7.68;4.80;;;;;;;13.71;69.20;100382.03;10218819;28;20128;-74
2021/10/30 11:58:35;;;;;;;10.52;4.75;;;;;;;13.67;69.81;100377.22;10217296;28;20520;-73
2021/10/30 12:03:35;;;;;;;11.05;5.55;;;;;;;13.63;68.51;100365.34;10224003;28;20042;-74
2021/10/30 12:08:34;;;;;;;9.40;4.80;;;;;;;13.63;70.30;100370.81;10203699;28;20065;-74
2021/10/30 12:13:33;;;;;;;9.23;5.25;;;;;;;13.59;71.21;100369.91;10191108;28;20042;-75
2021/10/30 12:18:30;;;;;;;11.65;6.95;;;;;;;13.57;69.66;100355.72;10184340;28;20128;-75
2021/10/30 12:23:27;;;;;;;12.40;6.53;;;;;;;13.58;70.79;100351.84;10195744;28;20049;-73
2021/10/30 12:28:34;;;;;;;9.13;6.00;;;;;;;13.53;70.64;100346.59;10217852;28;20084;-74
2021/10/30 12:33:35;;;;;;;13.93;6.75;;;;;;;13.50;69.02;100330.00;10213359;28;20115;-74
2021/10/30 12:38:35;;;;;;;12.05;7.15;;;;;;;13.50;70.31;100327.25;10196309;28;20555;-74
2021/10/30 12:43:36;;;;;;;15.10;8.07;;;;;;;13.43;69.24;100325.09;10202582;28;20376;-74
2021/10/30 12:48:36;;;;;;;12.23;6.50;;;;;;;13.46;70.63;100322.47;10196714;28;20049;-74
2021/10/30 12:53:36;;;;;;;11.57;7.75;;;;;;;13.43;69.06;100312.16;10200313;28;20128;-74
2021/10/30 12:59:03;;;;;;;17.08;7.05;;;;;;;13.39;70.69;100304.94;10204192;28;20042;-75
2021/10/30 13:04:05;;;;;;;12.23;7.22;;;;;;;13.40;69.02;100303.81;10207436;28;20087;-73
2021/10/30 13:09:17;;;;;;;12.23;7.97;;;;;;;13.39;69.57;100288.47;10209199;28;20582;-74
2021/10/30 13:14:14;;;;;;;12.70;9.25;;;;;;;13.38;67.53;100292.38;10199918;28;20042;-74
2021/10/30 13:19:10;;;;;;;12.02;8.02;;;;;;;13.35;66.95;100282.09;10215535;28;20499;-75
2021/10/30 13:24:09;;;;;;;16.15;9.80;;;;;;;13.36;67.29;100283.69;10208802;28;20073;-74
2021/10/30 13:29:05;;;;;;;13.82;9.00;;;;;;;13.31;66.52;100276.50;10198334;28;20057;-73
2021/10/30 13:34:04;;;;;;;18.20;11.15;;;;;;;13.30;65.68;100282.31;10196487;28;20073;-74
2021/10/30 13:39:00;;;;;;;14.63;9.88;;;;;;;13.20;66.85;100270.63;10195793;28;20053;-73
2021/10/30 13:44:01;;;;;;;17.08;10.00;;;;;;;13.20;67.30;100265.16;10212101;28;20075;-75
2021/10/30 13:48:58;;;;;;;17.38;10.75;;;;;;;13.22;66.85;100257.38;10210260;28;20103;-74
2021/10/30 13:53:56;;;;;;;16.58;11.65;;;;;;;13.17;66.61;100271.34;10206666;28;20069;-74
2021/10/30 13:58:53;;;;;;;19.65;12.63;;;;;;;13.15;66.80;100259.09;10185516;28;20050;-74
2021/10/30 14:03:51;;;;;;;19.33;12.00;;;;;;;13.12;65.87;100263.34;10190188;28;20037;-75
2021/10/30 14:08:49;;;;;;;17.10;12.60;;;;;;;13.15;67.09;100283.81;10183643;28;20415;-74
2021/10/30 14:13:45;;;;;;;23.48;13.75;;;;;;;13.15;66.45;100286.56;10207595;28;20066;-74
2021/10/30 14:18:44;;;;;;;19.95;13.02;;;;;;;13.12;66.24;100293.53;10213375;28;20511;-74
2021/10/30 14:23:41;;;;;;;19.65;13.35;;;;;;;13.16;67.21;100297.22;10212300;28;20046;-74
2021/10/30 14:28:46;;;;;;;22.02;14.75;;;;;;;13.11;67.61;100300.19;10217780;28;20037;-74
2021/10/30 14:33:42;;;;;;;19.17;14.52;;;;;;;13.10;66.66;100298.56;10207825;28;20092;-74
2021/10/30 14:38:39;;;;;;;21.30;14.70;;;;;;;13.12;66.97;100295.50;10216132;28;20733;-74
2021/10/30 14:43:35;;;;;;;23.83;14.45;;;;;;;13.06;66.49;100303.16;10220863;28;20057;-74
2021/10/30 14:48:32;;;;;;;26.40;16.42;;;;;;;13.01;66.83;100306.91;10197537;28;20149;-74
2021/10/30 14:53:28;;;;;;;24.80;17.02;;;;;;;12.92;66.36;100308.19;10180557;28;20073;-75
2021/10/30 14:58:25;;;;;;;23.10;17.13;;;;;;;12.85;66.54;100312.28;10189236;28;20120;-74
2021/10/30 15:03:23;;;;;;;25.15;18.60;;;;;;;12.78;66.85;100309.31;10189265;28;20070;-74
2021/10/30 15:08:19;;;;;;;26.98;18.13;;;;;;;12.74;67.24;100313.91;10193244;28;20475;-73
2021/10/30 15:13:16;;;;;;;26.88;19.13;;;;;;;12.69;67.46;100305.91;10204750;28;20056;-74
2021/10/30 15:18:12;;;;;;;26.45;19.67;;;;;;;12.69;67.21;100296.88;10208569;28;20049;-75
2021/10/30 15:23:09;;;;;;;29.63;20.85;;;;;;;12.61;67.13;100304.88;10226481;28;20458;-74
2021/10/30 15:28:05;;;;;;;28.17;21.33;;;;;;;12.59;68.16;100295.38;10216524;28;20076;-74
2021/10/30 15:33:02;;;;;;;27.23;20.35;;;;;;;12.52;67.88;100301.44;10202633;28;20087;-73
2021/10/30 15:37:59;;;;;;;29.83;21.50;;;;;;;12.48;68.16;100288.75;10226524;28;20765;-74
2021/10/30 15:42:58;;;;;;;29.50;21.85;;;;;;;12.47;68.78;100281.66;10199900;28;20542;-73
2021/10/30 15:47:55;;;;;;;28.73;22.13;;;;;;;12.42;69.16;100272.50;10198693;28;20049;-73
2021/10/30 15:52:51;;;;;;;35.47;23.25;;;;;;;12.39;69.84;100264.97;10219135;28;20041;-73
2021/10/30 15:57:48;;;;;;;29.95;22.55;;;;;;;12.36;69.81;100270.34;10205761;28;20068;-74
2021/10/30 16:02:45;;;;;;;31.27;23.30;;;;;;;12.36;70.14;100260.16;10204602;28;20119;-74
2021/10/30 16:07:43;;;;;;;29.83;22.67;;;;;;;12.33;70.33;100271.81;10201753;28;20038;-74
2021/10/30 16:12:40;;;;;;;31.20;23.48;;;;;;;12.29;70.03;100275.56;10199345;28;20073;-73
2021/10/30 16:17:36;;;;;;;32.15;23.30;;;;;;;12.29;70.16;100270.88;10214042;28;20076;-74
2021/10/30 16:22:35;;;;;;;31.95;23.45;;;;;;;12.28;70.43;100268.50;10210951;28;20077;-74
2021/10/30 16:27:32;;;;;;;32.95;23.23;;;;;;;12.23;70.73;100272.28;10199782;28;20078;-74
2021/10/30 16:32:28;;;;;;;33.92;25.13;;;;;;;12.21;70.97;100277.28;10204026;28;20046;-73
2021/10/30 16:37:25;;;;;;;36.40;25.42;;;;;;;12.19;71.13;100260.38;10209757;28;20049;-74
2021/10/30 16:42:21;;;;;;;38.45;25.48;;;;;;;12.20;72.10;100261.97;10198546;28;20073;-73
2021/10/30 16:47:18;;;;;;;33.65;24.73;;;;;;;12.14;73.23;100252.38;10177300;28;20050;-74
2021/10/30 16:52:14;;;;;;;38.72;26.05;;;;;;;12.09;73.18;100249.84;10184498;28;20050;-74
2021/10/30 16:57:11;;;;;;;40.38;27.50;;;;;;;12.10;72.43;100245.97;10186968;28;20053;-74
2021/10/30 17:02:07;;;;;;;31.67;24.35;;;;;;;12.09;73.05;100247.09;10180610;28;20046;-74
2021/10/30 17:07:04;;;;;;;38.00;25.90;;;;;;;12.12;73.09;100243.69;10182661;28;20042;-73
2021/10/30 17:12:01;;;;;;;38.05;26.35;;;;;;;12.09;73.42;100238.88;10205832;28;20547;-73
2021/10/30 17:16:58;;;;;;;33.35;25.35;;;;;;;12.06;73.89;100251.31;10193412;28;20121;-74
2021/10/30 17:21:55;;;;;;;34.08;26.00;;;;;;;12.06;73.12;100256.00;10196297;28;20049;-72
2021/10/30 17:26:52;;;;;;;34.30;25.23;;;;;;;12.02;72.38;100260.56;10214007;28;20144;-72
2021/10/30 17:31:48;;;;;;;36.58;26.65;;;;;;;11.95;73.35;100256.44;10213130;28;20114;-73
2021/10/30 17:36:45;;;;;;;34.85;25.98;;;;;;;11.93;73.15;100253.25;10211998;28;20482;-73
2021/10/30 17:41:41;;;;;;;38.60;26.77;;;;;;;11.90;73.77;100247.63;10218772;28;20038;-72
2021/10/30 17:46:38;;;;;;;33.13;26.25;;;;;;;11.92;73.55;100251.63;10214323;28;20080;-74
2021/10/30 17:51:35;;;;;;;35.13;27.55;;;;;;;11.88;73.72;100253.47;10207675;28;20050;-73
2021/10/30 17:56:31;;;;;;;34.95;25.73;;;;;;;11.92;73.46;100257.09;10200157;28;20088;-74
2021/10/30 18:01:28;;;;;;;35.53;27.17;;;;;;;11.90;73.12;100256.63;10208886;28;20045;-73
2021/10/30 18:06:25;;;;;;;35.38;27.40;;;;;;;11.89;73.02;100259.72;10209339;28;20838;-73
2021/10/30 18:11:21;;;;;;;33.13;25.83;;;;;;;11.88;73.08;100267.16;10213945;28;20092;-71
2021/10/30 18:16:18;;;;;;;34.67;26.58;;;;;;;11.82;73.29;100273.94;10204632;28;20049;-73
2021/10/30 18:21:14;;;;;;;33.90;25.58;;;;;;;11.77;73.14;100264.00;10186897;28;20072;-72
2021/10/30 18:26:14;;;;;;;32.60;25.15;;;;;;;11.77;73.69;100268.69;10178978;28;20046;-72
2021/10/30 18:31:21;;;;;;;37.30;24.98;;;;;;;11.74;73.71;100272.06;10211050;28;20100;-73
2021/10/30 18:36:18;;;;;;;39.20;26.02;;;;;;;11.74;73.45;100278.38;10213228;28;20137;-72
2021/10/30 18:41:15;;;;;;;36.55;26.73;;;;;;;11.74;73.36;100272.06;10215017;28;20073;-73
2021/10/30 18:46:11;;;;;;;35.88;27.13;;;;;;;11.73;73.52;100265.00;10204357;28;20100;-73
2021/10/30 18:51:08;;;;;;;35.20;24.67;;;;;;;11.68;73.21;100273.44;10222923;28;20045;-73
2021/10/30 18:56:04;;;;;;;37.05;25.67;;;;;;;11.69;73.64;100264.84;10218224;28;20124;-73
2021/10/30 19:01:01;;;;;;;40.35;27.30;;;;;;;11.70;73.57;100262.94;10209295;28;20103;-72
2021/10/30 19:06:04;;;;;;;33.78;25.42;;;;;;;11.69;73.60;100266.81;10214594;28;20140;-73
2021/10/30 19:11:02;;;;;;;33.05;25.38;;;;;;;11.71;73.73;100264.53;10211523;28;20045;-72
2021/10/30 19:15:59;;;;;;;33.85;24.40;;;;;;;11.73;73.33;100259.53;10198524;28;20128;-73
2021/10/30 19:20:56;;;;;;;39.90;26.67;;;;;;;11.73;73.45;100265.00;10218637;28;20085;-72
2021/10/30 19:25:52;;;;;;;36.28;25.63;;;;;;;11.73;73.63;100270.47;10209662;28;20069;-73
2021/10/30 19:30:49;;;;;;;35.33;24.25;;;;;;;11.72;73.58;100269.69;10206937;28;20042;-75
2021/10/30 19:35:46;;;;;;;29.70;22.55;;;;;;;11.74;73.37;100261.94;10203685;28;20041;-72
2021/10/30 19:40:43;;;;;;;32.90;23.77;;;;;;;11.72;73.26;100246.94;10207570;28;20459;-71
2021/10/30 19:45:41;;;;;;;32.85;23.38;;;;;;;11.67;73.16;100255.38;10202480;28;20065;-75
2021/10/30 19:50:37;;;;;;;33.45;25.40;;;;;;;11.67;73.45;100260.84;10201604;28;20068;-74
2021/10/30 19:55:34;;;;;;;32.75;24.40;;;;;;;11.60;73.84;100258.66;10184420;28;20050;-74
2021/10/30 20:00:31;;;;;;;32.78;22.92;;;;;;;11.52;74.05;100254.88;10188798;28;20562;-75
2021/10/30 20:05:28;;;;;;;34.03;24.40;;;;;;;11.46;74.27;100261.69;10180264;28;20069;-75
2021/10/30 20:10:24;;;;;;;32.53;23.48;;;;;;;11.45;74.21;100270.25;10185867;28;20046;-74
2021/10/30 20:15:20;;;;;;;34.35;22.48;;;;;;;11.42;74.21;100266.25;10208627;28;20080;-73
2021/10/30 20:20:17;;;;;;;30.33;21.75;;;;;;;11.43;74.65;100265.09;10212243;28;20054;-74
2021/10/30 20:25:14;;;;;;;32.40;21.20;;;;;;;11.38;74.98;100260.63;10212856;28;20058;-74
2021/10/30 20:30:11;;;;;;;31.40;21.77;;;;;;;11.36;74.97;100273.03;10209599;28;20514;-74
2021/10/30 20:35:08;;;;;;;28.42;20.98;;;;;;;11.37;75.15;100283.66;10208007;28;20050;-75
2021/10/30 20:40:05;;;;;;;27.30;20.67;;;;;;;11.40;75.21;100290.41;10216553;28;20081;-75
2021/10/30 20:45:02;;;;;;;27.52;19.65;;;;;;;11.46;75.37;100289.06;10212310;28;20103;-75
2021/10/30 20:49:58;;;;;;;32.22;20.45;;;;;;;11.51;75.31;100280.66;10170380;28;20084;-75
2021/10/30 20:54:55;;;;;;;28.75;20.95;;;;;;;11.52;75.59;100287.72;10177551;28;20084;-74
2021/10/30 20:59:51;;;;;;;28.10;19.90;;;;;;;11.52;75.06;100286.94;10186104;28;20074;-73
2021/10/30 21:04:48;;;;;;;26.17;19.85;;;;;;;11.55;75.71;100306.22;10182412;28;20058;-74
2021/10/30 21:09:44;;;;;;;29.20;18.98;;;;;;;11.57;75.81;100306.69;10205113;28;20065;-75
2021/10/30 21:14:41;;;;;;;25.75;18.08;;;;;;;11.56;76.13;100296.88;10207700;28;20045;-74
2021/10/30 21:19:38;;;;;;;19.95;14.00;;;;;;;11.57;76.50;100290.25;10183882;28;20826;-73
2021/10/30 21:24:36;;;;;;;20.48;14.10;;;;;;;11.59;76.67;100293.47;10182506;28;20104;-74
2021/10/30 21:29:33;;;;;;;17.35;13.65;;;;;;;11.63;76.88;100299.09;10199612;28;20046;-75
2021/10/30 21:34:30;;;;;;;18.92;13.35;;;;;;;11.67;76.90;100299.19;10203496;28;20539;-74
2021/10/30 21:39:29;;;;;;;18.13;13.50;;;;;;;11.73;77.31;100308.81;10169797;28;20050;-74
2021/10/30 21:44:26;;;;;;;20.63;13.60;;;;;;;11.76;77.23;100313.63;10177914;28;20145;-73
2021/10/30 21:49:23;;;;;;;13.85;9.93;;;;;;;11.79;77.20;100312.97;10180442;28;20420;-73
2021/10/30 21:54:19;;;;;;;15.15;10.85;;;;;;;11.78;77.77;100312.16;10175908;28;20043;-74
2021/10/30 21:59:16;;;;;;;15.88;10.75;;;;;;;11.82;77.87;100323.25;10193222;28;20151;-74
2021/10/30 22:04:12;;;;;;;13.40;9.18;;;;;;;11.80;79.41;100331.78;10226714;28;20481;-75
2021/10/30 22:09:09;;;;;;;14.93;9.10;;;;;;;11.80;80.19;100331.00;10210839;28;20471;-75
2021/10/30 22:14:08;;;;;;;18.00;10.63;;;;;;;11.81;81.29;100332.59;10211791;28;20077;-75
2021/10/30 22:19:05;;;;;;;13.55;8.63;;;;;;;11.82;81.88;100345.16;10214025;28;20072;-75
2021/10/30 22:24:02;;;;;;;12.93;8.05;;;;;;;11.84;82.68;100342.09;10221491;28;20068;-73
2021/10/30 22:28:59;;;;;;;13.32;7.75;;;;;;;11.86;83.16;100351.56;10211717;28;20638;-75
2021/10/30 22:33:57;;;;;;;10.98;7.10;;;;;;;11.87;83.89;100342.25;10222548;28;20087;-75